Darstellungsparameter: Aktuell verwendete Einstellungen:
Skalierung der Graphiken ... ?
xyx+y,   Skalierungsfaktor:      Skalierung: Modus: x, Faktor: 1
Darstellungszeitraum ... ?
Vom - - bis: - -   Zeitraum: 01.10.2020 - 01.10.2020
Min/Max/Avg-Anzeige ... ?
Zeige MMA aktuell
Zeige MMA Monat
Zeige MMA alles
Zeige --A aktuell
Zeige --A Monat
Zeige --A alles
Keine MMA-Anzeige
MMA:
Keine MMA-Graphiken
MMA-Basis: 01.10.2020 - 01.10.2020
Quicknavigation für Darstellung... ?
Tage:      1T, 2T, 3T, 5T -1T -2T -3T -5T +1T +2T +3T +5T
Wochen: 1W, 2W, 3W -1W -2W -3W +1W +2W +3W
Monate: 1M, 3M, 6M -1M -3M -6M +1M +3M +6M
Jahre:    1J, 3J, 5J, 10J -1J -3J -5J -10J +1J +3J +5J +10J
Nutze für die Darstellung ... ?
Originaldaten oder Mittelwerte auf ...
Stundenbasis Tagesbasis Wochenbasis
Monatsbasis Jahresbasis      Datenbasis: Original-Daten
Darstellen als:
Statistik (Auto) Statistik J:M      Darstellung:
Zur Graphik,    zurück zur Übersicht aller Sensoren.
 
Tabellarische Datenbersicht: ?
 
Sensor: Nr:Datum:Temp:Feuchte:Taupunkt:
Aussen-T/F 1 01-10-2020 02:00:00 10.3 C 96 % 9.69 C
2 01-10-2020 02:05:00 10.3 C 96 % 9.69 C
3 01-10-2020 02:10:00 10.3 C 96 % 9.69 C
4 01-10-2020 02:15:00 10.3 C 96 % 9.69 C
5 01-10-2020 02:20:00 10.2 C 96 % 9.59 C
6 01-10-2020 02:25:00 10.2 C 96 % 9.59 C
7 01-10-2020 02:30:00 10.2 C 96 % 9.59 C
8 01-10-2020 02:35:00 10.1 C 96 % 9.49 C
9 01-10-2020 02:40:00 10.1 C 96 % 9.49 C
10 01-10-2020 02:45:00 10 C 96 % 9.39 C
11 01-10-2020 02:50:00 10 C 96 % 9.39 C
12 01-10-2020 02:55:00 9.9 C 96 % 9.29 C
13 01-10-2020 03:00:00 9.9 C 96 % 9.29 C
14 01-10-2020 03:05:00 9.9 C 96 % 9.29 C
15 01-10-2020 03:10:00 9.9 C 96 % 9.29 C
16 01-10-2020 03:15:00 9.9 C 96 % 9.29 C
17 01-10-2020 03:20:00 9.9 C 96 % 9.29 C
18 01-10-2020 03:25:00 9.9 C 96 % 9.29 C
19 01-10-2020 03:30:00 9.9 C 96 % 9.29 C
20 01-10-2020 03:35:00 9.8 C 96 % 9.19 C
21 01-10-2020 03:40:00 9.8 C 96 % 9.19 C
22 01-10-2020 03:45:00 9.8 C 96 % 9.19 C
23 01-10-2020 03:50:00 9.8 C 96 % 9.19 C
24 01-10-2020 03:55:00 9.8 C 96 % 9.19 C
25 01-10-2020 04:00:00 9.8 C 96 % 9.19 C
Sensor: Nr:Datum:Temp:Feuchte:Taupunkt:
Aussen-T/F 26 01-10-2020 04:05:00 9.8 C 96 % 9.19 C
27 01-10-2020 04:10:00 9.8 C 96 % 9.19 C
28 01-10-2020 04:15:00 9.8 C 96 % 9.19 C
29 01-10-2020 04:20:00 9.9 C 96 % 9.29 C
30 01-10-2020 04:25:00 9.9 C 96 % 9.29 C
31 01-10-2020 04:30:00 9.9 C 96 % 9.29 C
32 01-10-2020 04:35:00 9.9 C 96 % 9.29 C
33 01-10-2020 04:40:00 9.9 C 97 % 9.45 C
34 01-10-2020 04:45:00 10 C 97 % 9.55 C
35 01-10-2020 04:50:00 10.1 C 97 % 9.65 C
36 01-10-2020 04:55:00 10.2 C 97 % 9.75 C
37 01-10-2020 05:00:00 10.3 C 97 % 9.85 C
38 01-10-2020 05:05:00 10.5 C 97 % 10.04 C
39 01-10-2020 05:10:00 10.6 C 97 % 10.14 C
40 01-10-2020 05:15:00 10.6 C 97 % 10.14 C
41 01-10-2020 05:20:00 10.6 C 97 % 10.14 C
42 01-10-2020 05:25:00 10.6 C 97 % 10.14 C
43 01-10-2020 05:30:00 10.5 C 97 % 10.04 C
44 01-10-2020 05:35:00 10.5 C 97 % 10.04 C
45 01-10-2020 05:40:00 10.5 C 97 % 10.04 C
46 01-10-2020 05:45:00 10.4 C 97 % 9.94 C
47 01-10-2020 05:50:00 10.4 C 97 % 9.94 C
48 01-10-2020 05:55:00 10.3 C 96 % 9.69 C
49 01-10-2020 06:00:00 10.1 C 96 % 9.49 C
50 01-10-2020 06:05:00 9.9 C 96 % 9.29 C
Sensor: Nr:Datum:Temp:Feuchte:Taupunkt:
Aussen-T/F 51 01-10-2020 06:10:00 9.8 C 96 % 9.19 C
52 01-10-2020 06:15:00 9.8 C 96 % 9.19 C
53 01-10-2020 06:20:00 9.8 C 97 % 9.35 C
54 01-10-2020 06:25:00 9.8 C 97 % 9.35 C
55 01-10-2020 06:30:00 9.8 C 97 % 9.35 C
56 01-10-2020 06:35:00 9.8 C 97 % 9.35 C
57 01-10-2020 06:40:00 9.8 C 97 % 9.35 C
58 01-10-2020 06:45:00 9.8 C 97 % 9.35 C
59 01-10-2020 06:50:00 9.7 C 97 % 9.25 C
60 01-10-2020 06:55:00 9.7 C 97 % 9.25 C
61 01-10-2020 07:00:00 9.7 C 97 % 9.25 C
62 01-10-2020 07:05:00 9.7 C 96 % 9.09 C
63 01-10-2020 07:10:00 9.5 C 96 % 8.89 C
64 01-10-2020 07:15:00 9.4 C 96 % 8.8 C
65 01-10-2020 07:20:00 9.4 C 96 % 8.8 C
66 01-10-2020 07:25:00 9.4 C 97 % 8.95 C
67 01-10-2020 07:30:00 9.4 C 97 % 8.95 C
68 01-10-2020 07:35:00 9.4 C 97 % 8.95 C
69 01-10-2020 07:40:00 9.5 C 97 % 9.05 C
70 01-10-2020 07:45:00 9.6 C 97 % 9.15 C
71 01-10-2020 07:50:00 9.6 C 97 % 9.15 C
72 01-10-2020 07:55:00 9.6 C 97 % 9.15 C
73 01-10-2020 08:00:00 9.7 C 97 % 9.25 C
74 01-10-2020 08:05:00 9.8 C 97 % 9.35 C
75 01-10-2020 08:10:00 9.8 C 97 % 9.35 C
Sensor: Nr:Datum:Temp:Feuchte:Taupunkt:
Aussen-T/F 76 01-10-2020 08:15:00 10 C 97 % 9.55 C
77 01-10-2020 08:20:00 10 C 97 % 9.55 C
78 01-10-2020 08:25:00 10.1 C 97 % 9.65 C
79 01-10-2020 08:30:00 10.1 C 97 % 9.65 C
80 01-10-2020 08:35:00 10.2 C 97 % 9.75 C
81 01-10-2020 08:40:00 10.2 C 97 % 9.75 C
82 01-10-2020 08:45:00 10.2 C 97 % 9.75 C
83 01-10-2020 08:50:00 10.3 C 97 % 9.85 C
84 01-10-2020 08:55:00 10.3 C 97 % 9.85 C
85 01-10-2020 09:00:00 10.3 C 97 % 9.85 C
86 01-10-2020 09:05:00 10.4 C 97 % 9.94 C
87 01-10-2020 09:10:00 10.4 C 97 % 9.94 C
88 01-10-2020 09:15:00 10.6 C 97 % 10.14 C
89 01-10-2020 09:20:00 10.7 C 97 % 10.24 C
90 01-10-2020 09:25:00 10.8 C 97 % 10.34 C
91 01-10-2020 09:30:00 10.9 C 97 % 10.44 C
92 01-10-2020 09:35:00 10.9 C 97 % 10.44 C
93 01-10-2020 09:40:00 11.1 C 97 % 10.64 C
94 01-10-2020 09:45:00 11.1 C 97 % 10.64 C
95 01-10-2020 09:50:00 11.2 C 97 % 10.74 C
96 01-10-2020 09:55:00 11.3 C 97 % 10.84 C
97 01-10-2020 10:00:00 11.4 C 97 % 10.94 C
98 01-10-2020 10:05:00 11.4 C 97 % 10.94 C
99 01-10-2020 10:10:00 11.5 C 97 % 11.04 C
100 01-10-2020 10:15:00 11.7 C 97 % 11.24 C
Sensor: Nr:Datum:Temp:Feuchte:Taupunkt:
Aussen-T/F 101 01-10-2020 10:20:00 11.9 C 98 % 11.59 C
102 01-10-2020 10:25:00 12.1 C 98 % 11.79 C
103 01-10-2020 10:30:00 12.3 C 98 % 11.99 C
104 01-10-2020 10:35:00 12.6 C 98 % 12.29 C
105 01-10-2020 10:40:00 12.7 C 98 % 12.39 C
106 01-10-2020 10:45:00 12.9 C 98 % 12.59 C
107 01-10-2020 10:50:00 13.2 C 98 % 12.89 C
108 01-10-2020 10:55:00 13.3 C 98 % 12.99 C
109 01-10-2020 11:00:00 13.4 C 97 % 12.93 C
110 01-10-2020 11:05:00 13.5 C 97 % 13.03 C
111 01-10-2020 11:10:00 13.5 C 96 % 12.87 C
112 01-10-2020 11:15:00 13.6 C 95 % 12.81 C
113 01-10-2020 11:20:00 13.7 C 95 % 12.91 C
114 01-10-2020 11:25:00 13.8 C 94 % 12.85 C
115 01-10-2020 11:30:00 14.1 C 94 % 13.15 C
116 01-10-2020 11:35:00 14.3 C 93 % 13.18 C
117 01-10-2020 11:40:00 14.5 C 92 % 13.22 C
118 01-10-2020 11:45:00 14.7 C 92 % 13.41 C
119 01-10-2020 11:50:00 14.8 C 91 % 13.35 C
120 01-10-2020 11:55:00 15.1 C 90 % 13.47 C
121 01-10-2020 12:00:00 15.2 C 89 % 13.4 C
122 01-10-2020 12:05:00 15.4 C 89 % 13.6 C
123 01-10-2020 12:10:00 15.6 C 88 % 13.62 C
124 01-10-2020 12:15:00 15.7 C 87 % 13.54 C
125 01-10-2020 12:20:00 15.8 C 86 % 13.46 C
Sensor: Nr:Datum:Temp:Feuchte:Taupunkt:
Aussen-T/F 126 01-10-2020 12:25:00 15.9 C 86 % 13.56 C
127 01-10-2020 12:30:00 16.1 C 85 % 13.58 C
128 01-10-2020 12:35:00 16.3 C 85 % 13.77 C
129 01-10-2020 12:40:00 16.4 C 85 % 13.87 C
130 01-10-2020 12:45:00 16.6 C 84 % 13.89 C
131 01-10-2020 12:50:00 16.7 C 83 % 13.8 C
132 01-10-2020 12:55:00 16.8 C 83 % 13.9 C
133 01-10-2020 13:00:00 16.8 C 83 % 13.9 C
134 01-10-2020 13:05:00 16.9 C 82 % 13.81 C
135 01-10-2020 13:10:00 16.9 C 81 % 13.62 C
136 01-10-2020 13:15:00 16.9 C 81 % 13.62 C
137 01-10-2020 13:20:00 16.9 C 81 % 13.62 C
138 01-10-2020 13:25:00 16.9 C 81 % 13.62 C
139 01-10-2020 13:30:00 16.9 C 81 % 13.62 C
140 01-10-2020 13:35:00 16.9 C 81 % 13.62 C
141 01-10-2020 13:40:00 16.9 C 80 % 13.43 C
142 01-10-2020 13:45:00 17.1 C 81 % 13.82 C
143 01-10-2020 13:50:00 17.2 C 80 % 13.72 C
144 01-10-2020 13:55:00 17.2 C 79 % 13.53 C
145 01-10-2020 14:00:00 17.2 C 78 % 13.33 C
146 01-10-2020 14:05:00 17.2 C 80 % 13.72 C
147 01-10-2020 14:10:00 17.2 C 80 % 13.72 C
148 01-10-2020 14:15:00 17.1 C 80 % 13.62 C
149 01-10-2020 14:20:00 17 C 79 % 13.33 C
150 01-10-2020 14:25:00 16.9 C 80 % 13.43 C
Sensor: Nr:Datum:Temp:Feuchte:Taupunkt:
Aussen-T/F 151 01-10-2020 14:30:00 16.8 C 80 % 13.33 C
152 01-10-2020 14:35:00 16.8 C 80 % 13.33 C
153 01-10-2020 14:40:00 16.7 C 80 % 13.23 C
154 01-10-2020 14:45:00 16.7 C 80 % 13.23 C
155 01-10-2020 14:50:00 16.6 C 81 % 13.33 C
156 01-10-2020 14:55:00 16.7 C 83 % 13.8 C
157 01-10-2020 15:00:00 16.6 C 85 % 14.07 C
158 01-10-2020 15:05:00 16.6 C 86 % 14.25 C
159 01-10-2020 15:10:00 16.4 C 86 % 14.05 C
160 01-10-2020 15:15:00 16.3 C 87 % 14.13 C
161 01-10-2020 15:20:00 16.2 C 88 % 14.21 C
162 01-10-2020 15:25:00 15.9 C 88 % 13.92 C
163 01-10-2020 15:30:00 15.7 C 88 % 13.72 C
164 01-10-2020 15:35:00 15.5 C 88 % 13.52 C
165 01-10-2020 15:40:00 15.4 C 89 % 13.6 C
166 01-10-2020 15:45:00 15.4 C 90 % 13.77 C
167 01-10-2020 15:50:00 15.4 C 90 % 13.77 C
168 01-10-2020 15:55:00 15.4 C 91 % 13.94 C
169 01-10-2020 16:00:00 15.4 C 91 % 13.94 C
170 01-10-2020 16:05:00 15.4 C 91 % 13.94 C
171 01-10-2020 16:10:00 15.3 C 91 % 13.84 C
172 01-10-2020 16:15:00 15.3 C 91 % 13.84 C
173 01-10-2020 16:20:00 15.3 C 91 % 13.84 C
174 01-10-2020 16:25:00 15.3 C 91 % 13.84 C
175 01-10-2020 16:30:00 15.2 C 91 % 13.74 C
Sensor: Nr:Datum:Temp:Feuchte:Taupunkt:
Aussen-T/F 176 01-10-2020 16:35:00 15.3 C 91 % 13.84 C
177 01-10-2020 16:40:00 15.2 C 91 % 13.74 C
178 01-10-2020 16:45:00 15.2 C 92 % 13.91 C
179 01-10-2020 16:50:00 15.2 C 91 % 13.74 C
180 01-10-2020 16:55:00 15.2 C 92 % 13.91 C
181 01-10-2020 17:00:00 15.2 C 92 % 13.91 C
182 01-10-2020 17:05:00 15.1 C 92 % 13.81 C
183 01-10-2020 17:10:00 15.1 C 93 % 13.98 C
184 01-10-2020 17:15:00 15.1 C 92 % 13.81 C
185 01-10-2020 17:20:00 15.1 C 93 % 13.98 C
186 01-10-2020 17:25:00 15.2 C 93 % 14.08 C
187 01-10-2020 17:30:00 15.2 C 93 % 14.08 C
188 01-10-2020 17:35:00 15.3 C 93 % 14.18 C
189 01-10-2020 17:40:00 15.3 C 93 % 14.18 C
190 01-10-2020 17:45:00 15.4 C 93 % 14.27 C
191 01-10-2020 17:50:00 15.4 C 93 % 14.27 C
192 01-10-2020 17:55:00 15.4 C 93 % 14.27 C
193 01-10-2020 18:00:00 15.6 C 94 % 14.64 C
194 01-10-2020 18:05:00 15.8 C 94 % 14.84 C
195 01-10-2020 18:10:00 16.3 C 94 % 15.33 C
196 01-10-2020 18:15:00 16.5 C 91 % 15.03 C
197 01-10-2020 18:20:00 16.5 C 90 % 14.85 C
198 01-10-2020 18:25:00 16.4 C 89 % 14.58 C
199 01-10-2020 18:30:00 16.4 C 89 % 14.58 C
200 01-10-2020 18:35:00 16.3 C 90 % 14.66 C
Sensor: Nr:Datum:Temp:Feuchte:Taupunkt:
Aussen-T/F 201 01-10-2020 18:40:00 16.1 C 89 % 14.29 C
202 01-10-2020 18:45:00 15.8 C 89 % 13.99 C
203 01-10-2020 18:50:00 15.6 C 89 % 13.79 C
204 01-10-2020 18:55:00 15.3 C 89 % 13.5 C
205 01-10-2020 19:00:00 15 C 89 % 13.2 C
206 01-10-2020 19:05:00 14.7 C 90 % 13.08 C
207 01-10-2020 19:10:00 14.4 C 90 % 12.78 C
208 01-10-2020 19:15:00 14.2 C 90 % 12.58 C
209 01-10-2020 19:20:00 14 C 90 % 12.39 C
210 01-10-2020 19:25:00 13.8 C 90 % 12.19 C
211 01-10-2020 19:30:00 13.6 C 90 % 11.99 C
212 01-10-2020 19:35:00 13.3 C 91 % 11.86 C
213 01-10-2020 19:40:00 13.2 C 91 % 11.76 C
214 01-10-2020 19:45:00 13.1 C 92 % 11.83 C
215 01-10-2020 19:50:00 12.9 C 92 % 11.63 C
216 01-10-2020 19:55:00 12.8 C 93 % 11.7 C
217 01-10-2020 20:00:00 12.7 C 92 % 11.43 C
218 01-10-2020 20:05:00 12.6 C 93 % 11.5 C
219 01-10-2020 20:10:00 12.5 C 93 % 11.4 C
220 01-10-2020 20:15:00 12.4 C 93 % 11.3 C
221 01-10-2020 20:20:00 12.4 C 93 % 11.3 C
222 01-10-2020 20:25:00 12.3 C 94 % 11.36 C
223 01-10-2020 20:30:00 12.2 C 93 % 11.1 C
224 01-10-2020 20:35:00 12.2 C 94 % 11.26 C
225 01-10-2020 20:40:00 12.2 C 94 % 11.26 C
Sensor: Nr:Datum:Temp:Feuchte:Taupunkt:
Aussen-T/F 226 01-10-2020 20:45:00 12.2 C 94 % 11.26 C
227 01-10-2020 20:50:00 12.2 C 94 % 11.26 C
228 01-10-2020 20:55:00 12.2 C 95 % 11.42 C
229 01-10-2020 21:00:00 12.3 C 95 % 11.52 C
230 01-10-2020 21:05:00 12.3 C 95 % 11.52 C
231 01-10-2020 21:10:00 12.4 C 95 % 11.62 C
232 01-10-2020 21:15:00 12.4 C 95 % 11.62 C
233 01-10-2020 21:20:00 12.7 C 96 % 12.08 C
234 01-10-2020 21:25:00 12.6 C 95 % 11.82 C
235 01-10-2020 21:30:00 12.4 C 95 % 11.62 C
236 01-10-2020 21:35:00 12.3 C 95 % 11.52 C
237 01-10-2020 21:40:00 12.2 C 95 % 11.42 C
238 01-10-2020 21:45:00 12.2 C 95 % 11.42 C
239 01-10-2020 21:50:00 12.1 C 95 % 11.32 C
240 01-10-2020 21:55:00 12.1 C 95 % 11.32 C
241 01-10-2020 22:00:00 11.9 C 95 % 11.13 C
242 01-10-2020 22:05:00 11.9 C 95 % 11.13 C
243 01-10-2020 22:10:00 11.8 C 95 % 11.03 C
244 01-10-2020 22:15:00 11.8 C 95 % 11.03 C
245 01-10-2020 22:20:00 11.7 C 95 % 10.93 C
246 01-10-2020 22:25:00 11.6 C 95 % 10.83 C
247 01-10-2020 22:30:00 11.4 C 95 % 10.63 C
248 01-10-2020 22:35:00 11.3 C 95 % 10.53 C
249 01-10-2020 22:40:00 11.2 C 95 % 10.43 C
250 01-10-2020 22:45:00 11.1 C 95 % 10.33 C
Sensor: Nr:Datum:Temp:Feuchte:Taupunkt:
Aussen-T/F 251 01-10-2020 22:50:00 11.1 C 95 % 10.33 C
252 01-10-2020 22:55:00 10.9 C 95 % 10.13 C
253 01-10-2020 23:00:00 10.9 C 95 % 10.13 C
254 01-10-2020 23:05:00 10.8 C 95 % 10.03 C
255 01-10-2020 23:10:00 10.8 C 95 % 10.03 C
256 01-10-2020 23:15:00 10.8 C 96 % 10.19 C
257 01-10-2020 23:20:00 10.8 C 96 % 10.19 C
258 01-10-2020 23:25:00 10.8 C 96 % 10.19 C
259 01-10-2020 23:30:00 10.8 C 96 % 10.19 C
260 01-10-2020 23:35:00 10.8 C 96 % 10.19 C
261 01-10-2020 23:40:00 10.8 C 96 % 10.19 C
262 01-10-2020 23:45:00 10.8 C 96 % 10.19 C
263 01-10-2020 23:50:00 10.9 C 96 % 10.29 C
264 01-10-2020 23:55:00 10.9 C 96 % 10.29 C

Legende:
   Min
   Max


Maximal/Minimal-Werte vom 01.10.2020 - 01.10.2020

Sensor Min Max Avg
Temp
(Aussen-T/F)
9.4 °C
01-10-2020  07:15:00
17.2 °C
01-10-2020  13:50:00
12.73 °C
Feuchte
(Aussen-T/F)
78 %
01-10-2020  14:00:00
98 %
01-10-2020  10:20:00
92.88 %
Taupunkt
(Aussen-T/F)
8.8 C
01-10-2020  07:15:00
15.33 C
01-10-2020  18:10:00
11.53 C

Die Daten stammen von einer Davis Vantage Pro 2 Wetter-Station und werden unter Linux mit der Software wview2wettercgi und aufbereitet. Alle Angaben erfolgen ohne Gewähr für ihre Vollständigkeit oder Richtigkeit.
Kontakt: Rainer Krienke krienke@uni-koblenz.de . Meine Webseiten an der Uni Koblenz oder privat.
Version: $Revision: 0.78 $